This is the latest recevied weather packets stored in our database for station/object HP3ICC-22. If no packets are shown the sender has not sent any weather packets the latest 1 day(s).
| Time | Temp. | Humidity | Pressure | Rain* | Wind** | Luminosity | Snow |
|---|---|---|---|---|---|---|---|
| 1778064204 | 8.89° C | 87% | 1014 hPa | 0 mm | - | - | - |
| 1778063064 | 9.44° C | 79% | 1013 hPa | 0 mm | - | - | - |
| 1778060663 | 9.44° C | 79% | 1013 hPa | 0 mm | - | - | - |
| 1778059462 | 8.89° C | 86% | 1012 hPa | 0 mm | - | - | - |
| 1778059402 | 8.89° C | 86% | 1012 hPa | 0 mm | - | - | - |
| 1778058262 | 8.89° C | 81% | 1012 hPa | 0 mm | - | - | - |
| 1778058202 | 8.89° C | 81% | 1012 hPa | 0 mm | - | - | - |
| 1778057001 | 10° C | 79% | 1013 hPa | 0 mm | - | - | - |
| 1778055861 | 8.89° C | 89% | 1013 hPa | 0 mm | - | - | - |
| 1778054660 | 9.44° C | 89% | 1013 hPa | 0 mm | - | - | - |
| 1778054600 | 9.44° C | 89% | 1013 hPa | 0 mm | - | - | - |
| 1778052259 | 9.44° C | 88% | 1013 hPa | 0 mm | - | - | - |
| 1778051058 | 10° C | 79% | 1014 hPa | 0 mm | - | - | - |
| 1778050998 | 10° C | 79% | 1014 hPa | 0 mm | - | - | - |
| 1778049857 | 9.44° C | 88% | 1014 hPa | 0 mm | - | - | - |
| 1778049797 | 9.44° C | 88% | 1014 hPa | 0 mm | - | - | - |
| 1778048657 | 10° C | 79% | 1014 hPa | 0 mm | - | - | - |
| 1778048597 | 10° C | 79% | 1014 hPa | 0 mm | - | - | - |
| 1778046256 | 10° C | 79% | 1015 hPa | 0 mm | - | - | - |
| 1778046195 | 10° C | 79% | 1015 hPa | 0 mm | - | - | - |
| 1778044995 | 9.44° C | 86% | 1015 hPa | 0 mm | - | - | - |
| 1778043855 | 9.44° C | 81% | 1015 hPa | 0 mm | - | - | - |
| 1778042594 | 10.56° C | 79% | 1015 hPa | 0 mm | - | - | - |
| 1778041454 | 9.44° C | 91% | 1015 hPa | 0 mm | - | - | - |
| 1778040253 | 10° C | 91% | 1014 hPa | 0 mm | - | - | - |
* Rain latest hour (hover to see other rain measurements)
** Current wind speed in m/s (hover to see current wind gust speed)